Portada
METAR-TAF:

METAR-TAF

Aeroports :

Rostov del Don, Rússia

latitud: 47-29-38N, longitud: 039-55-29E, altitud: 65 m

Observació

L'informe es va fer fa 18 minuts, a les 14:00 UTC
Vent 4 kt del Est
Temperatura 1°C
Humitat 93%
Pressió 1019 hPa
Visibilitat: 8000 m
Núvols disperses a una alçada de 400 ft

METAR: URRP 091400Z 10002MPS 8000 SCT004 01/00 Q1019 R05/150060 TEMPO 1000 BR BKN002 RMK QBB120 QFE760/1013

Hora: 18:18 (14:18 UTC)

Pronòstic

L'informe es va fer fa 3 hores i 23 minuts, a les 10:55 UTC
Pronòstic vàlid del 09 a les 12 UTC al 10 a les 12 UTC
Vent 6 kt del Sud/Sud-Est amb ràfegues de 16 kt
Visibilitat: 3100 m
Cel ennuvolat a una alçada de 300 ft
boirina
Temporalment
l' 09 a les 12 UTC al 10 a les 12 UTC
Vent 6 kt del Est amb ràfegues de 16 kt
Visibilitat: 0300 m
Cel cobert a una alçada de 100 ft
(lleu) gebradora, plugim, boira gebradora

TAF: URRP 091055Z 0912/1012 15003G08MPS 3100 BR BKN003 TEMPO 0912/1012 09003G08MPS 0300 -FZDZ FZFG OVC001

Observacions i pronòstics meteorològics de més de 4000 aeroports (METAR i TAF).

Les estacions disponibles són els punts grocs i vermells al mapa.

Posi el ratolí al punt desitjat per veure el nom de l'estació.

Feu clic per veure les observacions i els pronòstics meteorològics.

Per canviar el mapa: feu clic els botons verds amb una creu de color negre per apropar; al botó verd amb un guió per allunyar la imatge; o en les fletxes verdes per a mapes adjacents.


METAR-TAF: